• Join FlightAware (Why Join?)
  • Login
  • US Flag 
02:48AM EDT


 

Airport Tracker/Info


-or-


 

Live Flight TrackerFlight Track Log ✈ TAM3581 ✈ 14-Jul-2013 ✈ SBTE / THE - SBGR / GRU

Flight Track Log - Related Links

Times and Time Zones

All times are in EDT time to prevent confusion due to time zone crossing. See the TAM3581 flight status page for this flight to view local times or setup timezone preferences in your user account.

Time Position Orientation Groundspeed Altitude Reporting Facility
EDT Latitude Longitude Course Direction KTS MPH feet Rate Location/Type
01:31AM -5.0640 -42.8230 185° South 28 32  Level FlightAware
01:32AM -5.0660 -42.8230 180° South 29 33 120 Level FlightAware
01:32AM -5.0670 -42.8230 180° South 31 36 120 Level FlightAware
01:32AM -5.0680 -42.8230 180° South 25 29 120 Level FlightAware
01:33AM -5.0690 -42.8230 180° South 24 28 180 Level FlightAware
01:33AM -5.0700 -42.8230 180° South 21 24 240 Level FlightAware
01:34AM -5.0690 -42.8230 360° North 19 22 360 Level FlightAware
01:34AM -5.0670 -42.8230 360° North 63 72 540 Level FlightAware
01:34AM -5.0500 -42.8250 353° North 162 186 400 1,380 Climbing FlightAware
01:35AM -5.0400 -42.8260 354° North 161 185 1,000 1,620 Climbing FlightAware
01:35AM -5.0200 -42.8370 331° Northwest 191 220 1,600 1,380 Climbing FlightAware
01:35AM -5.0180 -42.8460 283° West 205 236 1,900 1,140 Climbing FlightAware
01:36AM -5.0360 -42.8710 234° Southwest 244 281 2,400 900 Climbing FlightAware
01:36AM -5.0500 -42.8740 192° South 260 299 2,600 2,520 Climbing FlightAware
01:36AM -5.0830 -42.8690 171° South 259 298 4,100 3,000 Climbing FlightAware
01:37AM -5.1180 -42.8620 169° South 266 306 5,400 2,700 Climbing FlightAware
01:37AM -5.1340 -42.8600 173° South 275 316 5,900 2,700 Climbing FlightAware
01:38AM -5.1710 -42.8740 201° Southwest 275 316 7,400 2,700 Climbing FlightAware
01:38AM -5.1860 -42.8810 205° Southwest 277 319 7,900 2,340 Climbing FlightAware
01:38AM -5.2170 -42.8950 204° Southwest 286 329 8,900 1,980 Climbing FlightAware
01:39AM -5.2530 -42.9120 205° Southwest 302 348 9,800 1,440 Climbing FlightAware
01:39AM -5.3150 -42.9400 204° Southwest 344 396 10,700 1,320 Climbing FlightAware
01:40AM -5.3740 -42.9680 205° Southwest 373 429 11,700 1,620 Climbing FlightAware
01:41AM -5.4380 -42.9980 205° Southwest 384 442 12,900 1,980 Climbing FlightAware
01:41AM -5.5100 -43.0310 205° Southwest 390 449 14,500 1,860 Climbing FlightAware
01:42AM -5.5780 -43.0630 205° Southwest 402 463 15,600 1,740 Climbing FlightAware
01:43AM -5.6530 -43.0920 201° Southwest 400 460 17,000 1,860 Climbing FlightAware
01:44AM -5.7360 -43.0980 184° South 407 468 18,300 1,620 Climbing FlightAware
01:44AM -5.8110 -43.1060 186° South 414 476 19,300 1,620 Climbing FlightAware
01:45AM -5.8970 -43.1150 186° South 414 476 20,600 1,380 Climbing FlightAware
01:46AM -5.9690 -43.1220 186° South 424 488 21,200 1,080 Climbing FlightAware
01:46AM -6.0580 -43.1300 185° South 435 501 22,100 1,140 Climbing FlightAware
01:47AM -6.1450 -43.1390 186° South 445 512 22,900 1,260 Climbing FlightAware
01:48AM -6.2290 -43.1470 185° South 445 512 23,900 1,020 Climbing FlightAware
01:49AM -6.3220 -43.1560 185° South 458 527 24,400 780 Climbing FlightAware
01:49AM -6.4030 -43.1640 186° South 466 536 25,000 960 Climbing FlightAware
01:50AM -6.5050 -43.1740 186° South 471 542 25,800 960 Climbing FlightAware
01:51AM -6.5900 -43.1820 185° South 477 549 26,400 840 Climbing FlightAware
01:51AM -6.6900 -43.1920 186° South 484 557 27,000 660 Climbing FlightAware
01:52AM -6.7790 -43.2010 186° South 490 564 27,400 660 Climbing FlightAware
01:53AM -6.8690 -43.2100 186° South 495 570 27,900 780 Climbing FlightAware
01:53AM -6.9650 -43.2190 185° South 499 574 28,500 420 Climbing FlightAware
01:54AM -7.0540 -43.2270 185° South 500 575 28,500 780 Level FlightAware
01:55AM -7.1540 -43.2380 186° South 506 582 29,600 660 Climbing FlightAware
01:56AM -7.2790 -43.2490 185° South 506 582 29,600  Level FlightAware
01:56AM -7.3500 -43.2550 185° South 506 582 29,600 2,760 Level FlightAware
01:57AM -7.4740 -43.2700 187° South 466 536 33,400 2,940 Climbing FlightAware
01:58AM -7.5720 -43.2790 185° South 466 536 34,000 600 Climbing FlightAware
01:59AM -7.6670 -43.2890 186° South 472 543 34,300 600 Climbing FlightAware
01:59AM -7.7510 -43.2970 185° South 471 542 34,900 420 Climbing FlightAware
02:00AM -7.8210 -43.3030 185° South 471 542 34,900  Level FlightAware
02:01AM -7.9100 -43.3110 185° South 471 542 34,900  Level FlightAware
02:01AM -7.9760 -43.3170 185° South 471 542 34,900  Level FlightAware
02:02AM -8.0650 -43.3250 185° South 471 542 34,900  Level FlightAware
02:03AM -8.1330 -43.3310 185° South 471 542 34,900 900 Level FlightAware
02:03AM -8.2940 -43.3510 187° South 495 570 36,000 780 Climbing FlightAware
02:04AM -8.4000 -43.3610 185° South 497 572 36,000  Level FlightAware
02:05AM -8.5460 -43.3760 186° South 506 582 36,000  Level FlightAware
02:06AM -8.6390 -43.3850 185° South 508 585 36,000  Level FlightAware
02:07AM -8.7490 -43.3960 186° South 510 587 36,000  Level FlightAware
02:07AM -8.8220 -43.4030 185° South 511 588 36,000  Level FlightAware
02:08AM -8.9280 -43.4140 186° South 511 588 36,000  Level FlightAware
02:09AM -9.0310 -43.4240 185° South 511 588 36,000  Level FlightAware
02:09AM -9.1250 -43.4330 185° South 512 589 36,000  Level FlightAware
02:10AM -9.2100 -43.4410 185° South 512 589 36,000  Level FlightAware
02:10AM -9.2820 -43.4470 185° South 512 589 36,000  Level FlightAware
02:11AM -9.4180 -43.4620 186° South 511 588 36,000  Level FlightAware
02:12AM -9.5010 -43.4700 185° South 511 588 36,000  Level FlightAware
02:13AM -9.5980 -43.4800 186° South 512 589 36,000  Level FlightAware
02:13AM -9.7010 -43.4900 185° South 511 588 36,000  Level FlightAware
02:15AM -9.9660 -43.5170 186° South 513 590 36,000  Level FlightAware
02:16AM -10.0630 -43.5270 186° South 514 592 36,000  Level FlightAware
02:16AM -10.1630 -43.5370 186° South 515 593 36,000  Level FlightAware
02:17AM -10.2530 -43.5450 185° South 516 594 36,000  Level FlightAware
02:18AM -10.3750 -43.5580 186° South 514 592 36,000  Level FlightAware
02:19AM -10.4760 -43.5680 186° South 514 592 36,000  Level FlightAware
02:19AM -10.5780 -43.5780 186° South 514 592 36,000  Level FlightAware
02:20AM -10.6690 -43.5870 186° South 514 592 36,000  Level FlightAware
02:21AM -10.7780 -43.5980 186° South 512 589 36,000  Level FlightAware
02:22AM -10.8720 -43.6070 185° South 512 589 36,000  Level FlightAware
02:22AM -10.9200 -43.6110 185° South 512 589 36,000  Level FlightAware
02:23AM -11.0180 -43.6200 185° South 512 589 36,000  Level FlightAware
02:23AM -11.0900 -43.6260 185° South 512 589 36,000  Level FlightAware
02:24AM -11.1630 -43.6330 185° South 512 589 36,000  Level FlightAware
02:25AM -11.2590 -43.6410 185° South 512 589 36,000  Level FlightAware
02:25AM -11.3310 -43.6480 185° South 512 589 36,000  Level FlightAware
02:27AM -11.5930 -43.6790 187° South 511 588 36,000  Level FlightAware
02:27AM -11.6650 -43.6860 185° South 511 588 36,000  Level FlightAware
02:28AM -11.7610 -43.6940 185° South 511 588 36,000  Level FlightAware
02:29AM -11.8330 -43.7010 185° South 511 588 36,000  Level FlightAware
02:29AM -11.9050 -43.7070 185° South 511 588 36,000  Level FlightAware
02:30AM -12.0070 -43.7160 185° South 511 588 36,000  Level FlightAware
02:31AM -12.0710 -43.7220 185° South 511 588 36,000  Level FlightAware
02:31AM -12.1670 -43.7300 185° South 511 588 36,000  Level FlightAware
02:32AM -12.2390 -43.7370 185° South 511 588 36,000  Level FlightAware
02:33AM -12.3350 -43.7460 185° South 511 588 36,000  Level FlightAware
02:33AM -12.4070 -43.7520 185° South 511 588 36,000  Level FlightAware
02:34AM -12.5030 -43.7610 185° South 511 588 36,000  Level FlightAware
02:35AM -12.5760 -43.7670 185° South 511 588 36,000  Level FlightAware
02:35AM -12.6480 -43.7740 185° South 511 588 36,000  Level FlightAware
02:38AM -12.8678 -43.8259 193° South  Level Estimated
02:39AM -12.9751 -43.8513 193° South  Level Estimated
02:40AM -13.0823 -43.8767 193° South  Level Estimated
02:41AM -13.1895 -43.9021 193° South  Level Estimated
02:42AM -13.2968 -43.9276 193° South  Level Estimated
02:43AM -13.4040 -43.9530 193° South  Level Estimated
02:44AM -13.5112 -43.9785 193° South  Level Estimated
02:45AM -13.6184 -44.0040 193° South  Level Estimated
02:46AM -13.7256 -44.0295 193° South  Level Estimated
02:47AM -13.8329 -44.0551 193° South  Level Estimated
02:48AM -13.9401 -44.0807 193° South  Level Estimated
02:49AM -14.0473 -44.1063 193° South  Level Estimated
02:50AM -14.1545 -44.1319 193° South  Level Estimated
02:51AM -14.2617 -44.1575 193° South  Level Estimated
02:52AM -14.3689 -44.1832 193° South  Level Estimated
02:53AM -14.4761 -44.2089 193° South  Level Estimated
02:54AM -14.5833 -44.2346 193° South  Level Estimated
02:55AM -14.6905 -44.2604 193° South  Level Estimated
02:56AM -14.7977 -44.2862 193° South  Level Estimated
02:57AM -14.9048 -44.3120 193° South  Level Estimated
02:58AM -15.0120 -44.3378 193° South  Level Estimated
02:59AM -15.1192 -44.3636 193° South  Level Estimated
03:00AM -15.2264 -44.3895 193° South  Level Estimated
03:01AM -15.3336 -44.4154 193° South  Level Estimated
03:02AM -15.4407 -44.4413 193° South  Level Estimated
03:03AM -15.5479 -44.4673 193° South  Level Estimated
03:04AM -15.6551 -44.4933 193° South  Level Estimated
03:05AM -15.7622 -44.5193 193° South  Level Estimated
03:06AM -15.8694 -44.5453 193° South  Level Estimated
03:07AM -15.9765 -44.5714 193° South  Level Estimated
03:07AM -16.9190 -44.7720 193° South 466 536 36,000  Level FlightAware
03:07AM -16.9990 -44.8130 206° Southwest 464 534 36,000  Level FlightAware
03:08AM -16.0837 -44.5975 193° South  Level Estimated
03:08AM -17.0800 -44.8550 206° Southwest 464 534 36,000  Level FlightAware
03:09AM -17.1650 -44.9000 207° Southwest 465 535 36,000  Level FlightAware
03:10AM -17.2570 -44.9480 206° Southwest 466 536 36,000  Level FlightAware
03:10AM -17.3140 -44.9770 206° Southwest 466 536 36,000  Level FlightAware
03:11AM -17.4200 -45.0330 207° Southwest 466 536 36,000  Level FlightAware
03:12AM -17.5230 -45.0900 208° Southwest 467 537 36,000  Level FlightAware
03:13AM -17.6030 -45.1340 208° Southwest 468 539 36,000  Level FlightAware
03:13AM -17.6730 -45.1730 208° Southwest 469 540 36,000  Level FlightAware
03:14AM -17.7990 -45.2390 207° Southwest 470 541 36,000  Level FlightAware
03:15AM -17.8760 -45.2790 206° Southwest 468 539 36,000  Level FlightAware
03:16AM -17.9520 -45.3190 207° Southwest 468 539 36,000  Level FlightAware
03:16AM -18.0330 -45.3620 207° Southwest 466 536 36,000  Level FlightAware
03:17AM -18.1150 -45.4050 206° Southwest 466 536 36,000  Level FlightAware
03:18AM -18.1860 -45.4420 206° Southwest 466 536 36,000  Level FlightAware
03:18AM -18.2800 -45.4900 206° Southwest 467 537 36,000  Level FlightAware
03:19AM -18.3580 -45.5290 205° Southwest 466 536 36,000  Level FlightAware
03:20AM -18.4480 -45.5760 206° Southwest 466 536 36,000  Level FlightAware
03:20AM -18.5230 -45.6120 204° Southwest 469 540 36,000  Level FlightAware
03:22AM -18.6560 -45.6750 204° Southwest 471 542 36,000  Level FlightAware
03:22AM -18.7710 -45.7310 205° Southwest 468 539 36,000  Level FlightAware
03:23AM -18.8470 -45.7670 204° Southwest 466 536 36,000  Level FlightAware
03:24AM -18.9270 -45.8060 205° Southwest 463 533 36,000  Level FlightAware
03:25AM -19.0110 -45.8490 206° Southwest 464 534 36,000  Level FlightAware
03:25AM -19.0990 -45.8930 205° Southwest 463 533 36,000  Level FlightAware
03:26AM -19.1800 -45.9340 206° Southwest 464 534 36,000  Level FlightAware
03:27AM -19.2660 -45.9770 205° Southwest 464 534 36,000  Level FlightAware
03:27AM -19.3460 -46.0160 205° Southwest 464 534 36,000  Level FlightAware
03:28AM -19.4210 -46.0530 205° Southwest 463 533 36,000  Level FlightAware
03:29AM -19.5030 -46.0930 205° Southwest 463 533 36,000  Level FlightAware
03:29AM -19.5900 -46.1350 204° Southwest 465 535 36,000  Level FlightAware
03:30AM -19.6670 -46.1720 204° Southwest 467 537 36,000  Level FlightAware
03:31AM -19.7500 -46.2120 204° Southwest 468 539 36,000  Level FlightAware
03:32AM -19.8390 -46.2550 204° Southwest 468 539 36,000  Level FlightAware
03:32AM -19.9190 -46.2940 205° Southwest 467 537 36,000  Level FlightAware
03:33AM -19.9870 -46.3290 206° Southwest 467 537 36,000  Level FlightAware
03:34AM -20.0750 -46.3730 205° Southwest 468 539 36,000  Level FlightAware
03:34AM -20.1540 -46.4130 205° Southwest 468 539 36,000  Level FlightAware
03:35AM -20.2220 -46.4470 205° Southwest 463 533 36,000  Level FlightAware
03:36AM -20.3000 -46.4860 205° Southwest 463 533 36,000  Level FlightAware
03:36AM -20.3850 -46.5290 205° Southwest 464 534 36,000  Level FlightAware
03:37AM -20.4650 -46.5690 205° Southwest 467 537 36,000  Level FlightAware
03:38AM -20.5510 -46.6130 206° Southwest 467 537 36,000  Level FlightAware
03:38AM -20.6320 -46.6530 205° Southwest 467 537 36,000  Level FlightAware
03:39AM -20.7200 -46.6970 205° Southwest 468 539 36,000  Level FlightAware
03:40AM -20.7860 -46.7300 205° Southwest 467 537 36,000  Level FlightAware
03:40AM -20.8660 -46.7700 205° Southwest 468 539 36,000  Level FlightAware
03:41AM -20.9460 -46.8100 205° Southwest 467 537 36,000  Level FlightAware
03:42AM -21.0230 -46.8490 205° Southwest 467 537 36,000  Level FlightAware
03:42AM -21.0950 -46.8860 206° Southwest 466 536 36,000  Level FlightAware
03:43AM -21.1780 -46.9320 207° Southwest 464 534 36,000  Level FlightAware
03:44AM -21.2540 -46.9730 207° Southwest 464 534 36,000  Level FlightAware
03:44AM -21.3440 -47.0180 205° Southwest 465 535 36,000  Level FlightAware
03:45AM -21.4230 -47.0570 205° Southwest 463 533 36,000  Level FlightAware
03:46AM -21.5050 -47.0980 205° Southwest 460 529 36,000  Level FlightAware
03:46AM -21.5840 -47.1370 205° Southwest 458 527 36,000  Level FlightAware
03:47AM -21.6560 -47.1730 205° Southwest 458 527 36,000  Level FlightAware
03:48AM -21.7320 -47.2110 205° Southwest 457 526 36,000 -1,080 Level FlightAware
03:49AM -21.8150 -47.2550 206° Southwest 450 518 34,500 -2,220 Descending FlightAware
03:49AM -21.8820 -47.2900 206° Southwest 446 513 33,100 -2,580 Descending FlightAware
03:50AM -21.9580 -47.3220 201° Southwest 455 524 31,300 -2,460 Descending FlightAware
03:51AM -22.0680 -47.3140 176° South 467 537 29,400 -2,220 Descending FlightAware
03:51AM -22.1640 -47.2730 158° South 462 532 27,600 -2,220 Descending FlightAware
03:52AM -22.2440 -47.2390 159° South 456 525 26,200 -2,160 Descending FlightAware
03:53AM -22.3270 -47.2040 159° South 447 514 24,600 -2,160 Descending FlightAware
03:54AM -22.4100 -47.1680 158° South 438 504 23,100 -2,100 Descending FlightAware
03:54AM -22.4810 -47.1380 159° South 430 495 21,800 -2,040 Descending FlightAware
03:55AM -22.5550 -47.1060 158° South 422 486 20,500 -1,980 Descending FlightAware
03:56AM -22.6330 -47.0730 159° South 415 478 19,100 -1,920 Descending FlightAware
03:56AM -22.7150 -47.0390 159° South 405 466 17,700 -1,860 Descending FlightAware
03:57AM -22.7840 -47.0100 159° South 399 459 16,500 -1,740 Descending FlightAware
03:58AM -22.8520 -46.9820 159° South 393 452 15,400 -1,860 Descending FlightAware
03:58AM -22.9240 -46.9510 158° South 385 443 14,000 -1,680 Descending FlightAware
03:59AM -22.9990 -46.9200 159° South 365 420 13,000 -1,080 Descending FlightAware
04:00AM -23.0530 -46.8970 159° South 336 387 12,600 -900 Descending FlightAware
04:01AM -23.1200 -46.8690 159° South 313 360 11,800 -1,140 Descending FlightAware
04:01AM -23.1630 -46.8510 159° South 305 351 11,100 -2,040 Descending FlightAware
04:02AM -23.2010 -46.8350 159° South 321 369 9,800 -2,640 Descending FlightAware
04:02AM -23.2230 -46.8250 157° South 327 376 9,200 -1,320 Descending FlightAware
04:02AM -23.2600 -46.8100 160° South 311 358 8,900 -720 Descending FlightAware
04:03AM -23.2930 -46.7960 159° South 294 338 8,600 -600 Descending FlightAware
04:03AM -23.3220 -46.7830 158° South 273 314 8,400 -600 Descending FlightAware
04:03AM -23.3400 -46.7760 160° South 265 305 8,200 -840 Descending FlightAware
04:04AM -23.3710 -46.7620 157° South 247 284 7,800 -780 Descending FlightAware
04:04AM -23.3820 -46.7530 143° Southeast 243 280 7,700 -900 Descending FlightAware
04:04AM -23.4060 -46.7310 140° Southeast 228 262 7,200 -1,080 Descending FlightAware
04:05AM -23.4220 -46.7160 139° Southeast 229 264 6,800 -1,140 Descending FlightAware
04:05AM -23.4450 -46.6940 139° Southeast 218 251 6,300 -1,140 Descending FlightAware
04:06AM -23.4530 -46.6820 126° Southeast 216 249 6,000 -1,620 Descending FlightAware
04:06AM -23.4630 -46.6570 114° Southeast 199 229 5,200 -1,860 Descending FlightAware
04:06AM -23.4690 -46.6410 112° Southeast 197 227 4,700 -1,320 Descending FlightAware
04:07AM -23.4740 -46.6270 111° Southeast 185 213 4,500 -480 Descending FlightAware
04:07AM -23.4710 -46.6080 80° East 162 186 4,400 -480 Descending FlightAware
04:07AM -23.4660 -46.5860 76° East 159 183 4,100 -900 Descending FlightAware
04:08AM -23.4600 -46.5650 73° East 153 176 3,600 -960 Descending FlightAware
04:08AM -23.4570 -46.5530 75° East 152 175 3,400 -720 Descending FlightAware
04:09AM -23.4510 -46.5320 73° East 151 174 3,100 -720 Descending FlightAware
04:09AM -23.4470 -46.5160 75° East 150 173 2,800 -780 Descending FlightAware
04:10AM -23.4390 -46.4890 72° East 148 170 2,300 -780 Descending FlightAware
04:10AM -23.4350 -46.4730 75° East 82 94 -4,800 Descending FlightAware
04:10AM -23.4340 -46.4690 75° East 24 28  Level FlightAware
04:11AM -23.4300 -46.4670 25° Northeast 21 24  Level FlightAware
04:12AM -23.4310 -46.4710 255° West 33 38  Level FlightAware
04:12AM -23.4330 -46.4780 253° West 35 40  Level FlightAware
04:13AM -23.4330 -46.4800 270° West 18 21  Level FlightAware
04:13AM -23.4330 -46.4810 270° West 19 22  Level FlightAware
04:13AM -23.4330 -46.4840 270° West 13 15  Level FlightAware
04:14AM -23.4310 -46.4840 360° North 17 20  Level FlightAware
04:14AM -23.4290 -46.4850 335° Northwest 19 22  Level FlightAware
04:17AM -23.4321 -46.4695 102° East  Level Estimated
04:18AM -23.4321 -46.4695 350° North  Level Estimated
04:19AM -23.4321 -46.4695 350° North  Level Estimated
04:20AM -23.4321 -46.4695 350° North  Level Estimated
04:21AM -23.4321 -46.4695 350° North  Level Estimated
04:22AM -23.4321 -46.4695 350° North  Level Estimated
04:23AM -23.4321 -46.4695 350° North  Level Estimated
04:24AM -23.4321 -46.4695 350° North  Level Estimated
04:25AM -23.4321 -46.4695 350° North  Level Estimated
04:26AM -23.4321 -46.4695 350° North  Level Estimated
04:27AM -23.4321 -46.4695 350° North  Level Estimated
04:28AM -23.4321 -46.4695 350° North  Level Estimated
04:29AM -23.4321 -46.4695 350° North  Level Estimated
04:30AM -23.4321 -46.4695 350° North  Level Estimated
04:31AM -23.4321 -46.4695 350° North  Level Estimated
04:32AM -23.4321 -46.4695 350° North  Level Estimated
04:33AM -23.4321 -46.4695 350° North  Level Estimated
04:34AM -23.4321 -46.4695 350° North  Level Estimated
04:35AM -23.4321 -46.4695 350° North  Level Estimated
04:36AM -23.4321 -46.4695 350° North  Level Estimated
04:37AM -23.4321 -46.4695 350° North  Level Estimated
04:38AM -23.4321 -46.4695 350° North  Level Estimated
04:39AM -23.4321 -46.4695 350° North  Level Estimated
04:40AM -23.4321 -46.4695 350° North  Level Estimated
04:41AM -23.4321 -46.4695 350° North  Level Estimated
04:42AM -23.4321 -46.4695 350° North  Level Estimated
04:43AM -23.4321 -46.4695 350° North  Level Estimated